Overview Statistics Trail Chart Weather Telemetry Raw packets
 

This is the latest recevied weather packets stored in our database for station/object KY0TEQ-13. If no packets are shown the sender has not sent any weather packets the latest 10 day(s).

<< 108 109 110 111 112 113 114 >>
Time Temp. Humidity Pressure Rain* Wind** Luminosity Snow
1787866935 23.89° C 34% 1312.4 hPa 0 mm - 74 W/m² -
1787866630 26.11° C 31% 1312.2 hPa 0 mm - 85 W/m² -
1787866327 26.11° C 28% 1311.8 hPa 0 mm - 103 W/m² -
1787866022 26.67° C 27% 1311.6 hPa 0 mm - 126 W/m² -
1787865718 27.78° C 27% 1311.8 hPa 0 mm - 160 W/m² -
1787865417 27.78° C 30% 1311.7 hPa 0 mm - 687 W/m² -
1787865112 26.67° C 29% 1311.7 hPa 0 mm - 780 W/m² -
1787864808 26.11° C 30% 1311.8 hPa 0 mm - 760 W/m² -
1787864508 25° C 35% 1311.8 hPa 0 mm - 430 W/m² -
1787864203 24.44° C 29% 1311.8 hPa 0 mm - 228 W/m² -
1787863897 23.33° C 31% 1311.7 hPa 0 mm - 151 W/m² -
1787863595 23.89° C 29% 1311.8 hPa 0 mm - 103 W/m² -
1787863286 23.89° C 25% 1312.1 hPa 3.05 mm - 106 W/m² -
1787862981 21.11° C 37% 1312.2 hPa 7.11 mm - 613 W/m² -
1787862676 22.78° C 39% 1312.4 hPa 3.05 mm - 94 W/m² -
1787862371 25.56° C 26% 1311.9 hPa 0 mm - 62 W/m² -
1787862067 23.89° C 35% 1311.9 hPa 0 mm - 57 W/m² -
1787861766 26.11° C 26% 1311.7 hPa 0 mm - 57 W/m² -
1787861464 27.78° C 20% 1311.6 hPa 0 mm - 67 W/m² -
1787861159 28.33° C 20% 1311.7 hPa 0 mm - 82 W/m² -
1787860858 28.33° C 20% 1311.7 hPa 0 mm - 99 W/m² -
1787860553 28.33° C 21% 1311.6 hPa 0 mm - 125 W/m² -
1787860248 28.89° C 21% 1311.7 hPa 0 mm - 145 W/m² -
1787859943 30° C 20% 1311.7 hPa 0 mm - 186 W/m² -
1787859638 30° C 19% 1311.7 hPa 0 mm - 343 W/m² -

* Rain latest hour (hover to see other rain measurements)
** Current wind speed in m/s (hover to see current wind gust speed)